Terminal Aerodrome Forecast
Issued by NWS

Home | Current Version | Previous Version | Text Only | Print | Product List | Glossary On
Versions: 1 2 3 4 5 6 7 8 9 10 11 12 13 14 15 16 17 18 19 20 21 22 23 24 25
000
FTUS43 KGRR 110737 AAA
TAFMKG
TAF AMD
KMKG 110737Z 1108/1206 14012KT 1/4SM SN FG OVC009
     FM110900 12007KT 1SM -SN BR OVC009
     FM111400 15013G21KT 3/4SM -SN BR OVC004
     FM112000 16012KT 3/4SM -SN BR OVC004
     FM120400 19007KT 2SM -SN BR OVC008=

USA.gov is the U.S. government's official web portal to all federal, state and local government web resources and services.